sensor_id;sensor_type;location;lat;lon;timestamp;temperature;humidity
24035;DHT22;12242;50.952;4.678;2024-02-26T00:00:26;7.00;99.90
24035;DHT22;12242;50.952;4.678;2024-02-26T00:02:53;7.10;99.90
24035;DHT22;12242;50.952;4.678;2024-02-26T00:05:22;7.20;99.90
24035;DHT22;12242;50.952;4.678;2024-02-26T00:07:49;7.30;99.90
24035;DHT22;12242;50.952;4.678;2024-02-26T00:10:18;7.30;99.90
24035;DHT22;12242;50.952;4.678;2024-02-26T00:12:48;7.50;99.90
24035;DHT22;12242;50.952;4.678;2024-02-26T00:15:15;7.50;99.90
24035;DHT22;12242;50.952;4.678;2024-02-26T00:17:43;7.30;99.90
24035;DHT22;12242;50.952;4.678;2024-02-26T00:20:14;7.40;99.90
24035;DHT22;12242;50.952;4.678;2024-02-26T00:22:42;7.30;99.90
24035;DHT22;12242;50.952;4.678;2024-02-26T00:25:10;7.30;99.90
24035;DHT22;12242;50.952;4.678;2024-02-26T00:27:40;7.30;99.90
24035;DHT22;12242;50.952;4.678;2024-02-26T00:30:09;7.40;99.90
24035;DHT22;12242;50.952;4.678;2024-02-26T00:32:39;7.30;99.90
24035;DHT22;12242;50.952;4.678;2024-02-26T00:35:13;7.20;99.90
24035;DHT22;12242;50.952;4.678;2024-02-26T00:37:42;7.30;99.90
24035;DHT22;12242;50.952;4.678;2024-02-26T00:40:11;7.40;99.90
24035;DHT22;12242;50.952;4.678;2024-02-26T00:42:41;7.30;99.90
24035;DHT22;12242;50.952;4.678;2024-02-26T00:45:16;7.30;99.90
24035;DHT22;12242;50.952;4.678;2024-02-26T00:47:46;7.40;99.90
24035;DHT22;12242;50.952;4.678;2024-02-26T00:50:16;7.20;99.90
24035;DHT22;12242;50.952;4.678;2024-02-26T00:52:43;7.00;99.90
24035;DHT22;12242;50.952;4.678;2024-02-26T00:55:11;6.90;99.90
24035;DHT22;12242;50.952;4.678;2024-02-26T00:57:42;7.00;99.90
24035;DHT22;12242;50.952;4.678;2024-02-26T01:00:10;7.00;99.90
24035;DHT22;12242;50.952;4.678;2024-02-26T01:02:38;7.00;99.90
24035;DHT22;12242;50.952;4.678;2024-02-26T01:05:09;6.90;99.90
24035;DHT22;12242;50.952;4.678;2024-02-26T01:07:42;6.90;99.90
24035;DHT22;12242;50.952;4.678;2024-02-26T01:10:12;6.90;99.90
24035;DHT22;12242;50.952;4.678;2024-02-26T01:12:43;7.10;99.90
24035;DHT22;12242;50.952;4.678;2024-02-26T01:15:13;7.10;99.90
24035;DHT22;12242;50.952;4.678;2024-02-26T01:17:42;7.00;99.90
24035;DHT22;12242;50.952;4.678;2024-02-26T01:20:10;7.00;99.90
24035;DHT22;12242;50.952;4.678;2024-02-26T01:22:37;6.80;99.90
24035;DHT22;12242;50.952;4.678;2024-02-26T01:25:06;6.70;99.90
24035;DHT22;12242;50.952;4.678;2024-02-26T01:27:37;6.80;99.90
24035;DHT22;12242;50.952;4.678;2024-02-26T01:30:10;7.00;99.90
24035;DHT22;12242;50.952;4.678;2024-02-26T01:32:37;7.10;99.90
24035;DHT22;12242;50.952;4.678;2024-02-26T01:35:05;7.10;99.90
24035;DHT22;12242;50.952;4.678;2024-02-26T01:37:38;7.10;99.90
24035;DHT22;12242;50.952;4.678;2024-02-26T01:40:10;6.90;99.90
24035;DHT22;12242;50.952;4.678;2024-02-26T01:42:38;6.80;99.90
24035;DHT22;12242;50.952;4.678;2024-02-26T01:45:12;6.90;99.90
24035;DHT22;12242;50.952;4.678;2024-02-26T01:47:43;6.90;99.90
24035;DHT22;12242;50.952;4.678;2024-02-26T01:50:13;7.00;99.90
24035;DHT22;12242;50.952;4.678;2024-02-26T01:52:41;7.00;99.90
24035;DHT22;12242;50.952;4.678;2024-02-26T01:55:09;7.00;99.90
24035;DHT22;12242;50.952;4.678;2024-02-26T01:57:37;7.00;99.90
24035;DHT22;12242;50.952;4.678;2024-02-26T02:00:05;7.20;99.90
24035;DHT22;12242;50.952;4.678;2024-02-26T02:02:36;7.20;99.90
24035;DHT22;12242;50.952;4.678;2024-02-26T02:05:06;7.00;99.90
24035;DHT22;12242;50.952;4.678;2024-02-26T02:07:36;6.90;99.90
24035;DHT22;12242;50.952;4.678;2024-02-26T02:10:05;7.00;99.90
24035;DHT22;12242;50.952;4.678;2024-02-26T02:12:36;7.00;99.90
24035;DHT22;12242;50.952;4.678;2024-02-26T02:15:08;7.10;99.90
24035;DHT22;12242;50.952;4.678;2024-02-26T02:17:36;7.20;99.90
24035;DHT22;12242;50.952;4.678;2024-02-26T02:20:08;7.20;99.90
24035;DHT22;12242;50.952;4.678;2024-02-26T02:22:39;6.90;99.90
24035;DHT22;12242;50.952;4.678;2024-02-26T02:25:07;6.90;99.90
24035;DHT22;12242;50.952;4.678;2024-02-26T02:27:37;7.10;99.90
24035;DHT22;12242;50.952;4.678;2024-02-26T02:30:08;7.20;99.90
24035;DHT22;12242;50.952;4.678;2024-02-26T02:32:40;6.90;99.90
24035;DHT22;12242;50.952;4.678;2024-02-26T02:35:16;6.80;99.90
24035;DHT22;12242;50.952;4.678;2024-02-26T02:37:43;6.90;99.90
24035;DHT22;12242;50.952;4.678;2024-02-26T02:40:13;6.90;99.90
24035;DHT22;12242;50.952;4.678;2024-02-26T02:42:44;7.00;99.90
24035;DHT22;12242;50.952;4.678;2024-02-26T02:45:14;6.90;99.90
24035;DHT22;12242;50.952;4.678;2024-02-26T02:47:41;6.80;99.90
24035;DHT22;12242;50.952;4.678;2024-02-26T02:50:09;6.80;99.90
24035;DHT22;12242;50.952;4.678;2024-02-26T02:52:38;6.90;99.90
24035;DHT22;12242;50.952;4.678;2024-02-26T02:55:08;7.00;99.90
24035;DHT22;12242;50.952;4.678;2024-02-26T02:57:36;7.00;99.90
24035;DHT22;12242;50.952;4.678;2024-02-26T03:00:09;7.10;99.90
24035;DHT22;12242;50.952;4.678;2024-02-26T03:02:37;7.10;99.90
24035;DHT22;12242;50.952;4.678;2024-02-26T03:05:05;7.00;99.90
24035;DHT22;12242;50.952;4.678;2024-02-26T03:07:33;6.70;99.90
24035;DHT22;12242;50.952;4.678;2024-02-26T03:10:01;6.70;99.90
24035;DHT22;12242;50.952;4.678;2024-02-26T03:12:30;6.70;99.90
24035;DHT22;12242;50.952;4.678;2024-02-26T03:15:00;6.70;99.90
24035;DHT22;12242;50.952;4.678;2024-02-26T03:17:32;6.80;99.90
24035;DHT22;12242;50.952;4.678;2024-02-26T03:19:59;6.90;99.90
24035;DHT22;12242;50.952;4.678;2024-02-26T03:22:27;6.90;99.90
24035;DHT22;12242;50.952;4.678;2024-02-26T03:24:55;6.90;99.90
24035;DHT22;12242;50.952;4.678;2024-02-26T03:27:23;7.00;99.90
24035;DHT22;12242;50.952;4.678;2024-02-26T03:29:50;7.10;99.90
24035;DHT22;12242;50.952;4.678;2024-02-26T03:32:21;7.10;99.90
24035;DHT22;12242;50.952;4.678;2024-02-26T03:34:48;7.10;99.90
24035;DHT22;12242;50.952;4.678;2024-02-26T03:37:16;7.00;99.90
24035;DHT22;12242;50.952;4.678;2024-02-26T03:39:46;7.00;99.90
24035;DHT22;12242;50.952;4.678;2024-02-26T03:42:15;7.00;99.90
24035;DHT22;12242;50.952;4.678;2024-02-26T03:44:44;7.00;99.90
24035;DHT22;12242;50.952;4.678;2024-02-26T03:47:13;6.90;99.90
24035;DHT22;12242;50.952;4.678;2024-02-26T03:49:41;6.90;99.90
24035;DHT22;12242;50.952;4.678;2024-02-26T03:52:14;6.90;99.90
24035;DHT22;12242;50.952;4.678;2024-02-26T03:54:42;6.80;99.90
24035;DHT22;12242;50.952;4.678;2024-02-26T03:57:11;6.80;99.90
24035;DHT22;12242;50.952;4.678;2024-02-26T03:59:39;6.70;99.90
24035;DHT22;12242;50.952;4.678;2024-02-26T04:02:09;6.80;99.90
24035;DHT22;12242;50.952;4.678;2024-02-26T04:04:37;6.80;99.90
24035;DHT22;12242;50.952;4.678;2024-02-26T04:07:05;6.80;99.90
24035;DHT22;12242;50.952;4.678;2024-02-26T04:09:34;6.80;99.90
24035;DHT22;12242;50.952;4.678;2024-02-26T04:12:04;6.90;99.90
24035;DHT22;12242;50.952;4.678;2024-02-26T04:14:33;6.80;99.90
24035;DHT22;12242;50.952;4.678;2024-02-26T04:17:00;6.90;99.90
24035;DHT22;12242;50.952;4.678;2024-02-26T04:19:28;6.90;99.90
24035;DHT22;12242;50.952;4.678;2024-02-26T04:21:56;6.90;99.90
24035;DHT22;12242;50.952;4.678;2024-02-26T04:24:29;6.90;99.90
24035;DHT22;12242;50.952;4.678;2024-02-26T04:26:57;6.90;99.90
24035;DHT22;12242;50.952;4.678;2024-02-26T04:29:25;6.80;99.90
24035;DHT22;12242;50.952;4.678;2024-02-26T04:31:55;6.80;99.90
24035;DHT22;12242;50.952;4.678;2024-02-26T04:34:24;6.80;99.90
24035;DHT22;12242;50.952;4.678;2024-02-26T04:36:55;6.90;99.90
24035;DHT22;12242;50.952;4.678;2024-02-26T04:39:25;6.90;99.90
24035;DHT22;12242;50.952;4.678;2024-02-26T04:41:55;7.00;99.90
24035;DHT22;12242;50.952;4.678;2024-02-26T04:44:23;6.80;99.90
24035;DHT22;12242;50.952;4.678;2024-02-26T04:46:50;6.90;99.90
24035;DHT22;12242;50.952;4.678;2024-02-26T04:49:18;6.90;99.90
24035;DHT22;12242;50.952;4.678;2024-02-26T04:51:45;6.90;99.90
24035;DHT22;12242;50.952;4.678;2024-02-26T04:54:15;6.80;99.90
24035;DHT22;12242;50.952;4.678;2024-02-26T04:56:46;6.90;99.90
24035;DHT22;12242;50.952;4.678;2024-02-26T04:59:16;6.90;99.90
24035;DHT22;12242;50.952;4.678;2024-02-26T05:01:48;6.90;99.90
24035;DHT22;12242;50.952;4.678;2024-02-26T05:04:24;6.80;99.90
24035;DHT22;12242;50.952;4.678;2024-02-26T05:06:52;6.80;99.90
24035;DHT22;12242;50.952;4.678;2024-02-26T05:09:20;6.80;99.90
24035;DHT22;12242;50.952;4.678;2024-02-26T05:11:48;6.80;99.90
24035;DHT22;12242;50.952;4.678;2024-02-26T05:14:15;6.90;99.90
24035;DHT22;12242;50.952;4.678;2024-02-26T05:16:45;7.00;99.90
24035;DHT22;12242;50.952;4.678;2024-02-26T05:19:15;6.90;99.90
24035;DHT22;12242;50.952;4.678;2024-02-26T05:21:43;6.90;99.90
24035;DHT22;12242;50.952;4.678;2024-02-26T05:24:12;6.90;99.90
24035;DHT22;12242;50.952;4.678;2024-02-26T05:26:45;6.90;99.90
24035;DHT22;12242;50.952;4.678;2024-02-26T05:29:15;6.80;99.90
24035;DHT22;12242;50.952;4.678;2024-02-26T05:31:48;6.80;99.90
24035;DHT22;12242;50.952;4.678;2024-02-26T05:34:15;6.80;99.90
24035;DHT22;12242;50.952;4.678;2024-02-26T05:36:43;6.90;99.90
24035;DHT22;12242;50.952;4.678;2024-02-26T05:39:12;6.80;99.90
24035;DHT22;12242;50.952;4.678;2024-02-26T05:41:47;6.80;99.90
24035;DHT22;12242;50.952;4.678;2024-02-26T05:44:15;6.90;99.90
24035;DHT22;12242;50.952;4.678;2024-02-26T05:46:43;7.00;99.90
24035;DHT22;12242;50.952;4.678;2024-02-26T05:49:11;6.90;99.90
24035;DHT22;12242;50.952;4.678;2024-02-26T05:51:39;7.00;99.90
24035;DHT22;12242;50.952;4.678;2024-02-26T05:54:10;6.90;99.90
24035;DHT22;12242;50.952;4.678;2024-02-26T05:56:40;7.00;99.90
24035;DHT22;12242;50.952;4.678;2024-02-26T05:59:09;6.90;99.90
24035;DHT22;12242;50.952;4.678;2024-02-26T06:01:38;6.90;99.90
24035;DHT22;12242;50.952;4.678;2024-02-26T06:04:06;7.00;99.90
24035;DHT22;12242;50.952;4.678;2024-02-26T06:06:35;6.90;99.90
24035;DHT22;12242;50.952;4.678;2024-02-26T06:09:08;6.90;99.90
24035;DHT22;12242;50.952;4.678;2024-02-26T06:11:40;6.90;99.90
24035;DHT22;12242;50.952;4.678;2024-02-26T06:14:08;6.90;99.90
24035;DHT22;12242;50.952;4.678;2024-02-26T06:16:37;6.80;99.90
24035;DHT22;12242;50.952;4.678;2024-02-26T06:19:05;6.90;99.90
24035;DHT22;12242;50.952;4.678;2024-02-26T06:21:41;6.90;99.90
24035;DHT22;12242;50.952;4.678;2024-02-26T06:24:09;6.90;99.90
24035;DHT22;12242;50.952;4.678;2024-02-26T06:26:36;6.80;99.90
24035;DHT22;12242;50.952;4.678;2024-02-26T06:29:04;6.80;99.90
24035;DHT22;12242;50.952;4.678;2024-02-26T06:31:32;6.80;99.90
24035;DHT22;12242;50.952;4.678;2024-02-26T06:34:00;6.70;99.90
24035;DHT22;12242;50.952;4.678;2024-02-26T06:36:28;6.80;99.90
24035;DHT22;12242;50.952;4.678;2024-02-26T06:38:56;6.80;99.90
24035;DHT22;12242;50.952;4.678;2024-02-26T06:41:24;6.80;99.90
24035;DHT22;12242;50.952;4.678;2024-02-26T06:43:58;6.90;99.90
24035;DHT22;12242;50.952;4.678;2024-02-26T06:46:26;6.90;99.90
24035;DHT22;12242;50.952;4.678;2024-02-26T06:49:12;6.70;99.90
24035;DHT22;12242;50.952;4.678;2024-02-26T06:53:08;6.80;99.90
24035;DHT22;12242;50.952;4.678;2024-02-26T06:55:57;6.80;99.90
24035;DHT22;12242;50.952;4.678;2024-02-26T06:58:40;6.80;99.90
24035;DHT22;12242;50.952;4.678;2024-02-26T07:01:34;6.70;99.90
24035;DHT22;12242;50.952;4.678;2024-02-26T07:04:26;6.80;99.90
24035;DHT22;12242;50.952;4.678;2024-02-26T07:07:19;6.80;99.90
24035;DHT22;12242;50.952;4.678;2024-02-26T07:10:22;6.70;99.90
24035;DHT22;12242;50.952;4.678;2024-02-26T07:13:41;6.70;99.90
24035;DHT22;12242;50.952;4.678;2024-02-26T07:16:19;6.70;99.90
24035;DHT22;12242;50.952;4.678;2024-02-26T07:18:48;6.70;99.90
24035;DHT22;12242;50.952;4.678;2024-02-26T07:21:16;6.70;99.90
24035;DHT22;12242;50.952;4.678;2024-02-26T07:23:47;6.70;99.90
24035;DHT22;12242;50.952;4.678;2024-02-26T07:26:18;6.70;99.90
24035;DHT22;12242;50.952;4.678;2024-02-26T07:28:47;6.70;99.90
24035;DHT22;12242;50.952;4.678;2024-02-26T07:31:17;6.70;99.90
24035;DHT22;12242;50.952;4.678;2024-02-26T07:33:47;6.70;99.90
24035;DHT22;12242;50.952;4.678;2024-02-26T07:36:17;6.70;99.90
24035;DHT22;12242;50.952;4.678;2024-02-26T07:38:45;6.70;99.90
24035;DHT22;12242;50.952;4.678;2024-02-26T07:41:15;6.70;99.90
24035;DHT22;12242;50.952;4.678;2024-02-26T07:43:43;6.70;99.90
24035;DHT22;12242;50.952;4.678;2024-02-26T07:46:14;6.80;99.90
24035;DHT22;12242;50.952;4.678;2024-02-26T07:48:44;6.70;99.90
24035;DHT22;12242;50.952;4.678;2024-02-26T07:51:14;6.70;99.90
24035;DHT22;12242;50.952;4.678;2024-02-26T07:53:42;6.60;99.90
24035;DHT22;12242;50.952;4.678;2024-02-26T07:56:10;6.60;99.90
24035;DHT22;12242;50.952;4.678;2024-02-26T07:58:40;6.60;99.90
24035;DHT22;12242;50.952;4.678;2024-02-26T08:01:13;6.70;99.90
24035;DHT22;12242;50.952;4.678;2024-02-26T08:03:44;6.70;99.90
24035;DHT22;12242;50.952;4.678;2024-02-26T08:06:14;6.70;99.90
24035;DHT22;12242;50.952;4.678;2024-02-26T08:08:41;6.60;99.90
24035;DHT22;12242;50.952;4.678;2024-02-26T08:11:09;6.70;99.90
24035;DHT22;12242;50.952;4.678;2024-02-26T08:13:37;6.80;99.90
24035;DHT22;12242;50.952;4.678;2024-02-26T08:16:07;6.80;99.90
24035;DHT22;12242;50.952;4.678;2024-02-26T08:18:35;6.80;99.90
24035;DHT22;12242;50.952;4.678;2024-02-26T08:21:05;6.90;99.90
24035;DHT22;12242;50.952;4.678;2024-02-26T08:23:40;6.80;99.90
24035;DHT22;12242;50.952;4.678;2024-02-26T08:26:08;6.90;99.90
24035;DHT22;12242;50.952;4.678;2024-02-26T08:28:38;6.80;99.90
24035;DHT22;12242;50.952;4.678;2024-02-26T08:31:05;6.70;99.90
24035;DHT22;12242;50.952;4.678;2024-02-26T08:33:34;6.70;99.90
24035;DHT22;12242;50.952;4.678;2024-02-26T08:36:05;6.80;99.90
24035;DHT22;12242;50.952;4.678;2024-02-26T08:38:32;6.80;99.90
24035;DHT22;12242;50.952;4.678;2024-02-26T08:41:02;6.80;99.90
24035;DHT22;12242;50.952;4.678;2024-02-26T08:43:30;6.80;99.90
24035;DHT22;12242;50.952;4.678;2024-02-26T08:45:59;6.90;99.90
24035;DHT22;12242;50.952;4.678;2024-02-26T08:48:26;6.80;99.90
24035;DHT22;12242;50.952;4.678;2024-02-26T08:50:54;6.80;99.90
24035;DHT22;12242;50.952;4.678;2024-02-26T08:53:22;6.70;99.90
24035;DHT22;12242;50.952;4.678;2024-02-26T08:56:03;6.70;99.90
24035;DHT22;12242;50.952;4.678;2024-02-26T08:58:31;6.60;99.90
24035;DHT22;12242;50.952;4.678;2024-02-26T09:00:59;6.60;99.90
24035;DHT22;12242;50.952;4.678;2024-02-26T09:03:29;6.60;99.90
24035;DHT22;12242;50.952;4.678;2024-02-26T09:05:56;6.60;99.90
24035;DHT22;12242;50.952;4.678;2024-02-26T09:08:25;6.70;99.90
24035;DHT22;12242;50.952;4.678;2024-02-26T09:10:52;6.60;99.90
24035;DHT22;12242;50.952;4.678;2024-02-26T09:13:20;6.60;99.90
24035;DHT22;12242;50.952;4.678;2024-02-26T09:15:48;6.60;99.90
24035;DHT22;12242;50.952;4.678;2024-02-26T09:18:16;6.80;99.90
24035;DHT22;12242;50.952;4.678;2024-02-26T09:20:44;6.80;99.90
24035;DHT22;12242;50.952;4.678;2024-02-26T09:23:12;6.80;99.90
24035;DHT22;12242;50.952;4.678;2024-02-26T09:25:40;6.70;99.90
24035;DHT22;12242;50.952;4.678;2024-02-26T09:28:10;6.80;99.90
24035;DHT22;12242;50.952;4.678;2024-02-26T09:30:38;6.80;99.90
24035;DHT22;12242;50.952;4.678;2024-02-26T09:33:05;6.90;99.90
24035;DHT22;12242;50.952;4.678;2024-02-26T09:35:36;6.90;99.90
24035;DHT22;12242;50.952;4.678;2024-02-26T09:38:03;6.80;99.90
24035;DHT22;12242;50.952;4.678;2024-02-26T09:40:33;6.70;99.90
24035;DHT22;12242;50.952;4.678;2024-02-26T09:43:04;6.70;99.90
24035;DHT22;12242;50.952;4.678;2024-02-26T09:45:33;6.70;99.90
24035;DHT22;12242;50.952;4.678;2024-02-26T09:48:05;6.80;99.90
24035;DHT22;12242;50.952;4.678;2024-02-26T09:50:38;6.70;99.90
24035;DHT22;12242;50.952;4.678;2024-02-26T09:53:10;6.70;99.90
24035;DHT22;12242;50.952;4.678;2024-02-26T09:55:38;6.70;99.90
24035;DHT22;12242;50.952;4.678;2024-02-26T09:58:08;6.70;99.90
24035;DHT22;12242;50.952;4.678;2024-02-26T10:00:50;6.70;99.90
24035;DHT22;12242;50.952;4.678;2024-02-26T10:03:21;6.60;99.90
24035;DHT22;12242;50.952;4.678;2024-02-26T10:05:53;6.50;99.90
24035;DHT22;12242;50.952;4.678;2024-02-26T10:08:25;6.50;99.90
24035;DHT22;12242;50.952;4.678;2024-02-26T10:10:54;6.60;99.90
24035;DHT22;12242;50.952;4.678;2024-02-26T10:13:22;6.60;99.90
24035;DHT22;12242;50.952;4.678;2024-02-26T10:15:52;6.70;99.90
24035;DHT22;12242;50.952;4.678;2024-02-26T10:18:23;6.60;99.90
24035;DHT22;12242;50.952;4.678;2024-02-26T10:21:02;6.60;99.90
24035;DHT22;12242;50.952;4.678;2024-02-26T10:23:30;6.70;99.90
24035;DHT22;12242;50.952;4.678;2024-02-26T10:25:58;6.60;99.90
24035;DHT22;12242;50.952;4.678;2024-02-26T10:28:26;6.60;99.90
24035;DHT22;12242;50.952;4.678;2024-02-26T10:30:54;6.70;99.90
24035;DHT22;12242;50.952;4.678;2024-02-26T10:33:22;6.60;99.90
24035;DHT22;12242;50.952;4.678;2024-02-26T10:35:54;6.50;99.90
24035;DHT22;12242;50.952;4.678;2024-02-26T10:38:26;6.60;99.90
24035;DHT22;12242;50.952;4.678;2024-02-26T10:40:54;6.60;99.90
24035;DHT22;12242;50.952;4.678;2024-02-26T10:43:24;6.60;99.90
24035;DHT22;12242;50.952;4.678;2024-02-26T10:45:54;6.50;99.90
24035;DHT22;12242;50.952;4.678;2024-02-26T10:48:22;6.50;99.90
24035;DHT22;12242;50.952;4.678;2024-02-26T10:50:51;6.40;99.90
24035;DHT22;12242;50.952;4.678;2024-02-26T10:53:23;6.50;99.90
24035;DHT22;12242;50.952;4.678;2024-02-26T10:55:56;6.40;99.90
24035;DHT22;12242;50.952;4.678;2024-02-26T10:58:25;6.40;99.90
24035;DHT22;12242;50.952;4.678;2024-02-26T11:00:53;6.40;99.90
24035;DHT22;12242;50.952;4.678;2024-02-26T11:03:25;6.40;99.90
24035;DHT22;12242;50.952;4.678;2024-02-26T11:05:53;6.40;99.90
24035;DHT22;12242;50.952;4.678;2024-02-26T11:08:23;6.50;99.90
24035;DHT22;12242;50.952;4.678;2024-02-26T11:10:54;6.40;99.90
24035;DHT22;12242;50.952;4.678;2024-02-26T11:13:28;6.40;99.90
24035;DHT22;12242;50.952;4.678;2024-02-26T11:16:04;6.40;99.90
24035;DHT22;12242;50.952;4.678;2024-02-26T11:18:31;6.30;99.90
24035;DHT22;12242;50.952;4.678;2024-02-26T11:21:00;6.30;99.90
24035;DHT22;12242;50.952;4.678;2024-02-26T11:23:32;6.40;99.90
24035;DHT22;12242;50.952;4.678;2024-02-26T11:26:04;6.30;99.90
24035;DHT22;12242;50.952;4.678;2024-02-26T11:28:33;6.30;99.90
24035;DHT22;12242;50.952;4.678;2024-02-26T11:31:02;6.30;99.90
24035;DHT22;12242;50.952;4.678;2024-02-26T11:33:33;6.30;99.90
24035;DHT22;12242;50.952;4.678;2024-02-26T11:36:11;6.40;99.90
24035;DHT22;12242;50.952;4.678;2024-02-26T11:38:39;6.30;99.90
24035;DHT22;12242;50.952;4.678;2024-02-26T11:41:07;6.20;99.90
24035;DHT22;12242;50.952;4.678;2024-02-26T11:44:01;6.20;99.90
24035;DHT22;12242;50.952;4.678;2024-02-26T11:46:33;6.10;99.90
24035;DHT22;12242;50.952;4.678;2024-02-26T11:51:51;6.30;99.90
24035;DHT22;12242;50.952;4.678;2024-02-26T11:54:39;6.20;99.90
24035;DHT22;12242;50.952;4.678;2024-02-26T11:57:28;6.30;99.90
24035;DHT22;12242;50.952;4.678;2024-02-26T12:02:41;6.30;99.90
24035;DHT22;12242;50.952;4.678;2024-02-26T12:05:23;6.30;99.90
24035;DHT22;12242;50.952;4.678;2024-02-26T12:08:02;6.30;99.90
24035;DHT22;12242;50.952;4.678;2024-02-26T12:10:39;6.30;99.90
24035;DHT22;12242;50.952;4.678;2024-02-26T12:13:11;6.40;99.90
24035;DHT22;12242;50.952;4.678;2024-02-26T12:15:57;6.40;99.90
24035;DHT22;12242;50.952;4.678;2024-02-26T12:18:26;6.40;99.90
24035;DHT22;12242;50.952;4.678;2024-02-26T12:21:04;6.30;99.90
24035;DHT22;12242;50.952;4.678;2024-02-26T12:23:32;6.20;99.90
24035;DHT22;12242;50.952;4.678;2024-02-26T12:26:02;6.20;99.90
24035;DHT22;12242;50.952;4.678;2024-02-26T12:28:34;6.20;99.90
24035;DHT22;12242;50.952;4.678;2024-02-26T12:31:02;6.10;99.90
24035;DHT22;12242;50.952;4.678;2024-02-26T12:33:34;6.20;99.90
24035;DHT22;12242;50.952;4.678;2024-02-26T12:36:04;6.20;99.90
24035;DHT22;12242;50.952;4.678;2024-02-26T12:38:32;6.30;99.90
24035;DHT22;12242;50.952;4.678;2024-02-26T12:41:02;6.50;99.90
24035;DHT22;12242;50.952;4.678;2024-02-26T12:43:30;6.50;99.90
24035;DHT22;12242;50.952;4.678;2024-02-26T12:45:59;6.50;99.90
24035;DHT22;12242;50.952;4.678;2024-02-26T12:48:30;6.40;99.90
24035;DHT22;12242;50.952;4.678;2024-02-26T12:50:58;6.40;99.90
24035;DHT22;12242;50.952;4.678;2024-02-26T12:53:27;6.30;99.90
24035;DHT22;12242;50.952;4.678;2024-02-26T12:55:55;6.20;99.90
24035;DHT22;12242;50.952;4.678;2024-02-26T12:58:23;6.30;99.90
24035;DHT22;12242;50.952;4.678;2024-02-26T13:00:55;6.30;99.90
24035;DHT22;12242;50.952;4.678;2024-02-26T13:03:25;6.40;99.90
24035;DHT22;12242;50.952;4.678;2024-02-26T13:05:54;6.40;99.90
24035;DHT22;12242;50.952;4.678;2024-02-26T13:08:22;6.40;99.90
24035;DHT22;12242;50.952;4.678;2024-02-26T13:10:51;6.30;99.90
24035;DHT22;12242;50.952;4.678;2024-02-26T13:13:20;6.30;99.90
24035;DHT22;12242;50.952;4.678;2024-02-26T13:15:48;6.20;99.90
24035;DHT22;12242;50.952;4.678;2024-02-26T13:18:16;6.30;99.90
24035;DHT22;12242;50.952;4.678;2024-02-26T13:20:47;6.30;99.90
24035;DHT22;12242;50.952;4.678;2024-02-26T13:23:14;6.30;99.90
24035;DHT22;12242;50.952;4.678;2024-02-26T13:25:42;6.30;99.90
24035;DHT22;12242;50.952;4.678;2024-02-26T13:28:19;6.30;99.90
24035;DHT22;12242;50.952;4.678;2024-02-26T13:30:54;6.30;99.90
24035;DHT22;12242;50.952;4.678;2024-02-26T13:33:28;6.30;99.90
24035;DHT22;12242;50.952;4.678;2024-02-26T13:35:57;6.40;99.90
24035;DHT22;12242;50.952;4.678;2024-02-26T13:38:27;6.40;99.90
24035;DHT22;12242;50.952;4.678;2024-02-26T13:40:55;6.40;99.90
24035;DHT22;12242;50.952;4.678;2024-02-26T13:43:26;6.40;99.90
24035;DHT22;12242;50.952;4.678;2024-02-26T13:45:53;6.50;99.90
24035;DHT22;12242;50.952;4.678;2024-02-26T13:48:21;6.50;99.90
24035;DHT22;12242;50.952;4.678;2024-02-26T13:50:52;6.50;99.90
24035;DHT22;12242;50.952;4.678;2024-02-26T13:53:20;6.50;99.90
24035;DHT22;12242;50.952;4.678;2024-02-26T13:55:49;6.50;99.90
24035;DHT22;12242;50.952;4.678;2024-02-26T13:58:19;6.50;99.90
24035;DHT22;12242;50.952;4.678;2024-02-26T14:00:50;6.40;99.90
24035;DHT22;12242;50.952;4.678;2024-02-26T14:03:20;6.50;99.90
24035;DHT22;12242;50.952;4.678;2024-02-26T14:05:49;6.50;99.90
24035;DHT22;12242;50.952;4.678;2024-02-26T14:08:21;6.60;99.90
24035;DHT22;12242;50.952;4.678;2024-02-26T14:10:51;6.40;99.90
24035;DHT22;12242;50.952;4.678;2024-02-26T14:13:20;6.50;99.90
24035;DHT22;12242;50.952;4.678;2024-02-26T14:15:47;6.60;99.90
24035;DHT22;12242;50.952;4.678;2024-02-26T14:18:15;6.60;99.90
24035;DHT22;12242;50.952;4.678;2024-02-26T14:20:45;6.70;99.90
24035;DHT22;12242;50.952;4.678;2024-02-26T14:23:14;6.70;99.90
24035;DHT22;12242;50.952;4.678;2024-02-26T14:25:43;6.60;99.90
24035;DHT22;12242;50.952;4.678;2024-02-26T14:28:11;6.60;99.90
24035;DHT22;12242;50.952;4.678;2024-02-26T14:30:48;6.70;99.90
24035;DHT22;12242;50.952;4.678;2024-02-26T14:33:18;6.70;99.90
24035;DHT22;12242;50.952;4.678;2024-02-26T14:35:46;6.70;99.90
24035;DHT22;12242;50.952;4.678;2024-02-26T14:38:14;6.70;99.90
24035;DHT22;12242;50.952;4.678;2024-02-26T14:40:42;6.60;99.90
24035;DHT22;12242;50.952;4.678;2024-02-26T14:43:10;6.70;99.90
24035;DHT22;12242;50.952;4.678;2024-02-26T14:45:43;6.80;99.90
24035;DHT22;12242;50.952;4.678;2024-02-26T14:48:17;6.90;99.90
24035;DHT22;12242;50.952;4.678;2024-02-26T14:50:48;6.80;99.90
24035;DHT22;12242;50.952;4.678;2024-02-26T14:53:17;6.60;99.90
24035;DHT22;12242;50.952;4.678;2024-02-26T14:55:44;6.60;99.90
24035;DHT22;12242;50.952;4.678;2024-02-26T14:58:11;6.50;99.90
24035;DHT22;12242;50.952;4.678;2024-02-26T15:00:39;6.50;99.90
24035;DHT22;12242;50.952;4.678;2024-02-26T15:03:07;6.40;99.90
24035;DHT22;12242;50.952;4.678;2024-02-26T15:05:39;6.40;99.90
24035;DHT22;12242;50.952;4.678;2024-02-26T15:08:06;6.40;99.90
24035;DHT22;12242;50.952;4.678;2024-02-26T15:10:36;6.40;99.90
24035;DHT22;12242;50.952;4.678;2024-02-26T15:13:06;6.50;99.90
24035;DHT22;12242;50.952;4.678;2024-02-26T15:15:35;6.50;99.90
24035;DHT22;12242;50.952;4.678;2024-02-26T15:18:07;6.50;99.90
24035;DHT22;12242;50.952;4.678;2024-02-26T15:20:35;6.50;99.90
24035;DHT22;12242;50.952;4.678;2024-02-26T15:23:06;6.50;99.90
24035;DHT22;12242;50.952;4.678;2024-02-26T15:25:36;6.40;99.90
24035;DHT22;12242;50.952;4.678;2024-02-26T15:28:05;6.40;99.90
24035;DHT22;12242;50.952;4.678;2024-02-26T15:30:41;6.50;99.90
24035;DHT22;12242;50.952;4.678;2024-02-26T15:33:11;6.50;99.90
24035;DHT22;12242;50.952;4.678;2024-02-26T15:35:40;6.50;99.90
24035;DHT22;12242;50.952;4.678;2024-02-26T15:38:15;6.50;99.90
24035;DHT22;12242;50.952;4.678;2024-02-26T15:40:42;6.40;99.90
24035;DHT22;12242;50.952;4.678;2024-02-26T15:43:12;6.40;99.90
24035;DHT22;12242;50.952;4.678;2024-02-26T15:45:43;6.40;99.90
24035;DHT22;12242;50.952;4.678;2024-02-26T15:48:10;6.40;99.90
24035;DHT22;12242;50.952;4.678;2024-02-26T15:50:38;6.40;99.90
24035;DHT22;12242;50.952;4.678;2024-02-26T15:53:09;6.40;99.90
24035;DHT22;12242;50.952;4.678;2024-02-26T15:55:36;6.40;99.90
24035;DHT22;12242;50.952;4.678;2024-02-26T15:58:11;6.40;99.90
24035;DHT22;12242;50.952;4.678;2024-02-26T16:00:41;6.50;99.90
24035;DHT22;12242;50.952;4.678;2024-02-26T16:03:12;6.50;99.90
24035;DHT22;12242;50.952;4.678;2024-02-26T16:05:40;6.50;99.90
24035;DHT22;12242;50.952;4.678;2024-02-26T16:08:13;6.50;99.90
24035;DHT22;12242;50.952;4.678;2024-02-26T16:10:48;6.50;99.90